Time;durP1;ratioP1;P1;durP2;ratioP2;P2;SDS_P1;SDS_P2;PMS_P1;PMS_P2;Temp;Humidity;BMP_temperature;BMP_pressure;BME280_temperature;BME280_humidity;BME280_pressure;Samples;Min_cycle;Max_cycle;Signal;HPM_P1;HPM_P2
2022/07/31 17:20:00;;;;;;;3.13;1.80;;;19.80;99.90;;;;;;4985440;24;20104;-82
2022/07/31 17:22:26;;;;;;;7.95;1.83;;;19.70;99.90;;;;;;4876949;29;20045;-81
2022/07/31 17:24:52;;;;;;;4.75;2.25;;;19.60;99.90;;;;;;4881936;29;20116;-81
2022/07/31 17:27:19;;;;;;;3.20;2.25;;;19.60;99.90;;;;;;4880448;29;20514;-80
2022/07/31 17:29:47;;;;;;;2.58;1.63;;;19.50;99.90;;;;;;4882826;29;20081;-81
2022/07/31 17:32:16;;;;;;;5.90;1.42;;;19.50;99.90;;;;;;4881390;29;20089;-80
2022/07/31 17:34:44;;;;;;;2.65;1.33;;;19.50;99.90;;;;;;4882170;29;20076;-80
2022/07/31 17:37:10;;;;;;;3.17;1.45;;;19.50;99.90;;;;;;4865606;29;20041;-81
2022/07/31 17:39:36;;;;;;;3.80;1.50;;;19.50;99.90;;;;;;4881776;29;20385;-82
2022/07/31 17:42:04;;;;;;;2.58;1.50;;;19.50;99.90;;;;;;4879677;29;20052;-80
2022/07/31 17:44:30;;;;;;;3.97;1.60;;;19.40;99.90;;;;;;4881981;29;20112;-81
2022/07/31 17:46:56;;;;;;;2.00;1.80;;;19.40;99.90;;;;;;4895804;29;20575;-80
2022/07/31 17:49:22;;;;;;;1.88;1.73;;;19.40;99.90;;;;;;4880477;29;20085;-81
2022/07/31 17:51:49;;;;;;;2.25;1.70;;;19.40;99.90;;;;;;4881467;29;20051;-80
2022/07/31 17:54:15;;;;;;;1.55;1.35;;;19.40;99.90;;;;;;4881346;29;20472;-80
2022/07/31 17:56:40;;;;;;;3.72;2.10;;;19.40;99.90;;;;;;4881840;29;20084;-81
2022/07/31 17:59:06;;;;;;;8.65;3.00;;;19.40;99.90;;;;;;4880258;29;20145;-80
2022/07/31 18:01:32;;;;;;;6.30;2.95;;;19.40;99.90;;;;;;4881500;29;20064;-80
2022/07/31 18:03:59;;;;;;;7.38;3.40;;;19.40;99.90;;;;;;4880463;29;20048;-80
2022/07/31 18:06:25;;;;;;;5.93;3.15;;;19.40;99.90;;;;;;4880174;29;20374;-81
2022/07/31 18:08:54;;;;;;;6.43;3.42;;;19.40;99.90;;;;;;4882081;29;20048;-83
2022/07/31 18:11:20;;;;;;;6.30;3.63;;;19.40;99.90;;;;;;4879248;29;20489;-80
2022/07/31 18:13:47;;;;;;;7.13;3.47;;;19.30;99.90;;;;;;4880651;29;20572;-81
2022/07/31 18:16:12;;;;;;;15.23;5.40;;;19.30;99.90;;;;;;4878635;29;20052;-80
2022/07/31 18:18:40;;;;;;;10.38;4.22;;;19.30;99.90;;;;;;4880847;29;20056;-81
2022/07/31 18:21:06;;;;;;;12.68;4.20;;;19.30;99.90;;;;;;4880794;29;20045;-81
2022/07/31 18:23:32;;;;;;;8.40;3.70;;;19.30;99.90;;;;;;4878133;29;20057;-80
2022/07/31 18:25:59;;;;;;;7.18;3.25;;;19.30;99.90;;;;;;4880793;29;20055;-82
2022/07/31 18:28:25;;;;;;;4.95;3.10;;;19.30;99.90;;;;;;4879916;29;20053;-81
2022/07/31 18:30:52;;;;;;;14.32;3.97;;;19.30;99.90;;;;;;4879720;29;20057;-80
2022/07/31 18:33:18;;;;;;;8.13;3.08;;;19.30;99.90;;;;;;4880355;29;20049;-81
2022/07/31 18:35:47;;;;;;;10.95;2.95;;;19.30;99.90;;;;;;4877926;29;20047;-82
2022/07/31 18:38:12;;;;;;;8.27;2.80;;;19.30;99.90;;;;;;4879484;29;20091;-81
2022/07/31 18:40:38;;;;;;;3.80;1.95;;;19.30;99.90;;;;;;4880605;29;20077;-81
2022/07/31 18:43:05;;;;;;;8.02;2.15;;;19.20;99.90;;;;;;4880966;29;20086;-81
2022/07/31 18:45:31;;;;;;;6.13;1.95;;;19.20;99.90;;;;;;4878063;29;20462;-82
2022/07/31 18:47:57;;;;;;;8.88;2.42;;;19.20;99.90;;;;;;4876691;29;20049;-82
2022/07/31 18:50:23;;;;;;;5.97;2.30;;;19.20;99.90;;;;;;4881417;29;20045;-82
2022/07/31 18:52:49;;;;;;;7.78;2.40;;;19.20;99.90;;;;;;4862940;29;20527;-82
2022/07/31 18:55:15;;;;;;;7.75;2.70;;;19.10;99.90;;;;;;4879157;29;20470;-82
2022/07/31 18:57:41;;;;;;;17.38;4.45;;;19.20;99.90;;;;;;4879259;29;20048;-82
2022/07/31 19:00:09;;;;;;;6.57;3.08;;;19.10;99.90;;;;;;4878971;29;20065;-82
2022/07/31 19:02:35;;;;;;;7.72;3.65;;;19.10;99.90;;;;;;4879469;29;20045;-82
2022/07/31 19:05:01;;;;;;;8.90;3.65;;;19.10;99.90;;;;;;4879075;29;20045;-82
2022/07/31 19:07:28;;;;;;;8.20;3.35;;;19.00;99.90;;;;;;4878301;29;20044;-82
2022/07/31 19:09:54;;;;;;;6.90;3.80;;;19.00;99.90;;;;;;4879135;29;20077;-83
2022/07/31 19:12:23;;;;;;;8.50;3.90;;;19.00;99.90;;;;;;4862454;29;20049;-84
2022/07/31 19:14:49;;;;;;;7.93;4.35;;;19.00;99.90;;;;;;4880020;29;20079;-82
2022/07/31 19:17:14;;;;;;;6.80;4.07;;;18.90;99.90;;;;;;4863476;29;20045;-82
2022/07/31 19:19:40;;;;;;;11.07;4.93;;;18.90;99.90;;;;;;4862113;29;20413;-84
2022/07/31 19:22:06;;;;;;;6.78;4.57;;;18.90;99.90;;;;;;4862381;29;20041;-82
2022/07/31 19:24:32;;;;;;;9.80;4.63;;;18.90;99.90;;;;;;4878609;29;20037;-82
2022/07/31 19:26:58;;;;;;;6.90;4.70;;;18.80;99.90;;;;;;4877184;29;20059;-82
2022/07/31 19:29:24;;;;;;;6.15;4.60;;;18.80;99.90;;;;;;4878772;29;20079;-82
2022/07/31 19:31:49;;;;;;;13.48;5.55;;;18.80;99.90;;;;;;4878180;29;20052;-82
2022/07/31 19:34:15;;;;;;;26.95;6.00;;;18.80;99.90;;;;;;4878980;29;20049;-82
2022/07/31 19:36:41;;;;;;;12.23;5.25;;;18.80;99.90;;;;;;4880584;29;20525;-81
2022/07/31 19:39:10;;;;;;;8.80;5.57;;;18.80;99.90;;;;;;4879132;29;20096;-81
2022/07/31 19:41:39;;;;;;;13.32;6.07;;;18.70;99.90;;;;;;4878761;29;20049;-82
2022/07/31 19:44:05;;;;;;;8.30;5.22;;;18.70;99.90;;;;;;4879450;29;20449;-82
2022/07/31 19:46:32;;;;;;;13.05;7.32;;;18.70;99.90;;;;;;4877747;29;20057;-83
2022/07/31 19:48:58;;;;;;;14.02;7.03;;;18.70;99.90;;;;;;4865105;29;20406;-81
2022/07/31 19:51:24;;;;;;;31.60;9.18;;;18.70;99.90;;;;;;4875233;29;20049;-81
2022/07/31 19:53:52;;;;;;;10.70;6.43;;;18.70;99.90;;;;;;4878270;29;20048;-82
2022/07/31 19:56:18;;;;;;;15.15;7.45;;;18.70;99.90;;;;;;4879337;29;20048;-83
2022/07/31 19:58:47;;;;;;;18.30;7.28;;;18.70;99.90;;;;;;4877884;29;20433;-82
2022/07/31 20:01:13;;;;;;;51.63;11.23;;;18.70;99.90;;;;;;4878282;29;20135;-81
2022/07/31 20:03:39;;;;;;;40.17;9.82;;;18.70;99.90;;;;;;4877616;29;20154;-82
2022/07/31 20:06:05;;;;;;;26.75;7.75;;;18.60;99.90;;;;;;4878711;29;20507;-82
2022/07/31 20:08:31;;;;;;;47.33;10.52;;;18.70;99.90;;;;;;4891730;29;20041;-82
2022/07/31 20:10:59;;;;;;;15.95;6.82;;;18.70;99.90;;;;;;4879052;29;20053;-80
2022/07/31 20:13:26;;;;;;;15.70;7.10;;;18.60;99.90;;;;;;4878926;29;20144;-81
2022/07/31 20:15:52;;;;;;;14.63;7.05;;;18.60;99.90;;;;;;4878266;29;20068;-80
2022/07/31 20:18:25;;;;;;;9.52;5.70;;;18.60;99.90;;;;;;4876384;29;20056;-81
2022/07/31 20:20:51;;;;;;;10.45;4.75;;;18.60;99.90;;;;;;4861099;29;20060;-81
2022/07/31 20:23:17;;;;;;;7.22;5.32;;;18.60;99.90;;;;;;4877992;29;20128;-80
2022/07/31 20:25:43;;;;;;;5.03;3.47;;;18.60;99.90;;;;;;4878848;29;20124;-81
2022/07/31 20:28:09;;;;;;;3.65;2.45;;;18.60;99.90;;;;;;4878037;29;20119;-81
2022/07/31 20:30:34;;;;;;;6.13;2.15;;;18.60;99.90;;;;;;4877417;29;20504;-80
2022/07/31 20:33:00;;;;;;;2.72;1.92;;;18.60;99.90;;;;;;4878306;29;20136;-78
2022/07/31 20:35:26;;;;;;;2.63;1.80;;;18.60;99.90;;;;;;4876309;29;20041;-79
2022/07/31 20:37:56;;;;;;;4.57;2.03;;;18.50;99.90;;;;;;4878043;29;20045;-81
2022/07/31 20:40:26;;;;;;;4.47;1.80;;;18.50;99.90;;;;;;4878313;29;20045;-81
2022/07/31 20:42:54;;;;;;;3.38;1.90;;;18.50;99.90;;;;;;4878687;29;20116;-80
2022/07/31 20:45:21;;;;;;;4.32;1.33;;;18.50;99.90;;;;;;4878523;29;20438;-80
2022/07/31 20:47:47;;;;;;;6.00;1.80;;;18.40;99.90;;;;;;4876417;29;20497;-80
2022/07/31 20:50:13;;;;;;;5.15;1.65;;;18.50;99.90;;;;;;4878137;29;20149;-80
2022/07/31 20:52:38;;;;;;;2.53;1.58;;;18.50;99.90;;;;;;4876270;29;20579;-80
2022/07/31 20:55:05;;;;;;;4.22;1.58;;;18.40;99.90;;;;;;4878356;29;20037;-81
2022/07/31 20:57:31;;;;;;;9.15;1.85;;;18.40;99.90;;;;;;4876709;29;20401;-81
2022/07/31 20:59:57;;;;;;;3.15;1.80;;;18.50;99.90;;;;;;4876830;29;20045;-81
2022/07/31 21:02:23;;;;;;;4.00;1.90;;;18.40;99.90;;;;;;4878486;29;20049;-80
2022/07/31 21:04:48;;;;;;;4.15;1.85;;;18.50;99.90;;;;;;4876980;29;20061;-80
2022/07/31 21:07:14;;;;;;;5.78;2.03;;;18.50;99.90;;;;;;4877567;29;20449;-81
2022/07/31 21:09:41;;;;;;;4.43;2.53;;;18.40;99.90;;;;;;4877154;29;20049;-81
2022/07/31 21:12:10;;;;;;;8.00;2.60;;;18.50;99.90;;;;;;4876876;29;20096;-82
2022/07/31 21:14:36;;;;;;;5.43;3.50;;;18.40;99.90;;;;;;4891123;29;20128;-82
2022/07/31 21:17:02;;;;;;;4.68;3.22;;;18.40;99.90;;;;;;4876012;29;20132;-82
2022/07/31 21:19:27;;;;;;;6.25;4.00;;;18.40;99.90;;;;;;4890261;29;20516;-82
2022/07/31 21:21:53;;;;;;;6.40;4.10;;;18.40;99.90;;;;;;4877698;29;20049;-81
2022/07/31 21:24:19;;;;;;;7.57;4.47;;;18.40;99.90;;;;;;4876802;29;20513;-82
2022/07/31 21:26:45;;;;;;;8.85;5.53;;;18.40;99.90;;;;;;4878404;29;20049;-82
2022/07/31 21:29:12;;;;;;;11.90;5.30;;;18.40;99.90;;;;;;4877750;29;20140;-82
2022/07/31 21:31:38;;;;;;;17.60;6.75;;;18.40;99.90;;;;;;4877825;29;20041;-81
2022/07/31 21:34:04;;;;;;;9.70;5.85;;;18.40;99.90;;;;;;4877394;29;20053;-82
2022/07/31 21:36:30;;;;;;;11.50;6.93;;;18.40;99.90;;;;;;4862905;29;20055;-82
2022/07/31 21:38:56;;;;;;;9.13;5.85;;;18.40;99.90;;;;;;4861740;29;20084;-82
2022/07/31 21:41:22;;;;;;;25.23;7.47;;;18.30;99.90;;;;;;4862518;29;20072;-82
2022/07/31 21:43:49;;;;;;;11.57;7.38;;;18.40;99.90;;;;;;4883885;29;20045;-82
2022/07/31 21:46:17;;;;;;;14.43;7.10;;;18.40;99.90;;;;;;4861257;29;20060;-82
2022/07/31 21:48:46;;;;;;;13.27;7.50;;;18.30;99.90;;;;;;4877528;29;20056;-82
2022/07/31 21:51:15;;;;;;;114.53;16.27;;;18.30;99.90;;;;;;4878114;29;20049;-81
2022/07/31 21:53:42;;;;;;;20.52;8.32;;;18.30;99.90;;;;;;4876759;29;20049;-81
2022/07/31 21:56:10;;;;;;;19.38;8.75;;;18.30;99.90;;;;;;4877682;29;20161;-82
2022/07/31 21:58:39;;;;;;;11.90;6.97;;;18.30;99.90;;;;;;4860940;29;20045;-82
2022/07/31 22:01:05;;;;;;;11.52;7.43;;;18.30;99.90;;;;;;4877657;29;20045;-81
2022/07/31 22:03:31;;;;;;;17.08;8.77;;;18.30;99.90;;;;;;4876808;29;20401;-82
2022/07/31 22:08:42;;;;;;;9.77;6.82;;;18.30;99.90;;;;;;4877209;29;20097;-81
2022/07/31 22:11:08;;;;;;;23.08;8.85;;;18.30;99.90;;;;;;4881662;29;20045;-81
2022/07/31 22:13:34;;;;;;;12.68;8.20;;;18.30;99.90;;;;;;4880491;29;20053;-81
2022/07/31 22:16:00;;;;;;;14.15;8.98;;;18.30;99.90;;;;;;4881741;29;20121;-81
2022/07/31 22:18:31;;;;;;;13.05;8.70;;;18.30;99.90;;;;;;4865302;29;20084;-81
2022/07/31 22:20:58;;;;;;;13.73;8.18;;;18.30;99.90;;;;;;4865782;29;20053;-81
2022/07/31 22:23:26;;;;;;;14.02;8.43;;;18.30;99.90;;;;;;4880792;29;20053;-81
2022/07/31 22:25:52;;;;;;;13.45;9.10;;;18.30;99.90;;;;;;4879557;29;20045;-82
2022/07/31 22:28:22;;;;;;;16.25;10.20;;;18.30;99.90;;;;;;4882444;29;20100;-81
2022/07/31 22:30:48;;;;;;;13.88;9.50;;;18.30;99.90;;;;;;4879365;29;20132;-81
2022/07/31 22:33:14;;;;;;;12.57;9.15;;;18.30;99.90;;;;;;4882246;29;20041;-81
2022/07/31 22:35:40;;;;;;;17.52;10.27;;;18.30;99.90;;;;;;4880457;29;20056;-81
2022/07/31 22:38:07;;;;;;;15.40;10.75;;;18.30;99.90;;;;;;4880594;29;20052;-81
2022/07/31 22:40:33;;;;;;;15.07;9.23;;;18.30;99.90;;;;;;4879969;29;20150;-80
2022/07/31 22:43:00;;;;;;;18.35;9.95;;;18.30;99.90;;;;;;4864603;29;20057;-81
2022/07/31 22:45:26;;;;;;;14.73;10.02;;;18.30;99.90;;;;;;4880410;29;20572;-81
2022/07/31 22:47:55;;;;;;;10.95;9.25;;;18.30;99.90;;;;;;4880420;29;20041;-81
2022/07/31 22:50:21;;;;;;;19.98;10.43;;;18.30;99.90;;;;;;4879502;29;20041;-81
2022/07/31 22:52:47;;;;;;;13.32;9.98;;;18.30;99.90;;;;;;4880876;29;20049;-81
2022/07/31 22:55:13;;;;;;;15.93;10.50;;;18.30;99.90;;;;;;4881970;29;20136;-81
2022/07/31 22:57:42;;;;;;;16.73;9.68;;;18.20;99.90;;;;;;4880059;29;20060;-81
2022/07/31 23:00:11;;;;;;;15.80;10.95;;;18.30;99.90;;;;;;4881324;29;20049;-80
2022/07/31 23:02:39;;;;;;;13.88;9.63;;;18.30;99.90;;;;;;4880806;29;20188;-80
2022/07/31 23:05:05;;;;;;;18.50;10.57;;;18.20;99.90;;;;;;4880107;29;20081;-80
2022/07/31 23:07:31;;;;;;;14.18;9.73;;;18.20;99.90;;;;;;4880960;29;20044;-80
2022/07/31 23:09:58;;;;;;;26.80;12.43;;;18.20;99.90;;;;;;4881258;29;20036;-80
2022/07/31 23:12:23;;;;;;;28.35;12.68;;;18.20;99.90;;;;;;4876461;29;20073;-81
2022/07/31 23:14:49;;;;;;;11.80;9.73;;;18.20;99.90;;;;;;4862003;29;20497;-81
2022/07/31 23:17:15;;;;;;;18.38;10.88;;;18.20;99.90;;;;;;4876761;29;20053;-81
2022/07/31 23:19:42;;;;;;;10.85;8.45;;;18.20;99.90;;;;;;4884228;29;20449;-81
2022/07/31 23:22:07;;;;;;;15.43;8.35;;;18.20;99.90;;;;;;4879140;29;20041;-81
2022/07/31 23:24:33;;;;;;;12.02;7.90;;;18.10;99.90;;;;;;4880622;29;20515;-81
2022/07/31 23:26:59;;;;;;;10.82;7.43;;;18.10;99.90;;;;;;4880001;29;20123;-81
2022/07/31 23:29:25;;;;;;;18.00;8.43;;;18.10;99.90;;;;;;4879509;29;20430;-81
2022/07/31 23:31:51;;;;;;;23.40;9.35;;;18.10;99.90;;;;;;4880188;29;20121;-82
2022/07/31 23:34:16;;;;;;;18.15;8.75;;;18.10;99.90;;;;;;4880065;29;20084;-82
2022/07/31 23:36:43;;;;;;;19.27;8.00;;;18.10;99.90;;;;;;4881179;29;20044;-82
2022/07/31 23:39:11;;;;;;;11.65;7.78;;;18.10;99.90;;;;;;4880227;29;20037;-82
2022/07/31 23:44:24;;;;;;;22.88;10.10;;;18.00;99.90;;;;;;4880219;29;20136;-81
2022/07/31 23:46:50;;;;;;;23.98;10.55;;;18.00;99.90;;;;;;4879012;29;20130;-81
2022/07/31 23:49:15;;;;;;;18.15;8.68;;;18.00;99.90;;;;;;4878670;29;20080;-81
2022/07/31 23:51:41;;;;;;;16.30;8.63;;;18.00;99.90;;;;;;4879478;29;20056;-81
2022/07/31 23:54:07;;;;;;;19.02;9.20;;;18.00;99.90;;;;;;4880457;29;20105;-81
2022/07/31 23:56:33;;;;;;;16.00;8.90;;;18.00;99.90;;;;;;4877826;29;20057;-81
2022/07/31 23:58:59;;;;;;;21.55;9.10;;;18.00;99.90;;;;;;4880844;29;20132;-81
